Zim Mumbai — P3BA7 — position and weather

sailwx.info

Track history (hours):
 
Tides and Currents Weather Stations Pressure Air Temp Water Temp Dewpoint Dewpoint Depression Visibility Wind Speed Wind Dir Waves Ship Positions

Zim Mumbai

Last reported at 2015-May-27 07:21 UTC. Time now 2015-May-30 14:39 UTC.
Position N 01°11' E 103°39'.

Length 195.7 m; beam 32.3 m; draft 11.5 m.

Type: Ship (hazmat cat B). MMSI: 212160000.

Date/timePositionNaut miles runAvg speedWind from/ knotsBaromVisibWave heightAir tempDewpointWater temp
2015-May-27 07:21N 01°11' E 103°39'1313.1
2015-May-27 06:21N 01°13' E 103°52'5 2.2
2015-May-27 04:13N 01°17' E 103°54'3 0.3
2015-May-26 17:28N 01°14' E 103°54'8 8.1
2015-May-26 16:30N 01°16' E 103°46'0 0.0
2015-May-26 12:15N 01°16' E 103°46'0 0.0
2015-May-26 11:25N 01°16' E 103°46'0 0.0
2015-May-26 08:30N 01°16' E 103°46'0 0.0
2015-May-26 05:30N 01°16' E 103°46'0 0.0
2015-May-26 04:27N 01°16' E 103°46'0 0.0
2015-May-26 03:31N 01°16' E 103°46'0 0.0
2015-May-26 02:20N 01°16' E 103°46'0 0.1
2015-May-25 23:33N 01°16' E 103°46'4 1.4
2015-May-25 20:20N 01°13' E 103°49'0 0.1
2015-May-25 19:30N 01°13' E 103°49'3 3.5
2015-May-25 18:32N 01°13' E 103°53'  
2015-May-21 02:23N 21°59' E 114°24'2411.2
2015-May-21 00:15N 22°16' E 114°06'15 8.6
2015-May-20 22:33N 22°24' E 113°53'1 0.0
2015-May-20 01:33N 22°25' E 113°53'6 5.5
2015-May-20 00:22N 22°21' E 113°58'8 9.7
2015-May-19 23:33N 22°17' E 114°06'11 5.7
2015-May-19 21:33N 22°06' E 114°08'0 0.1
2015-May-19 20:29N 22°06' E 114°08'0 0.0
2015-May-19 19:14N 22°06' E 114°08'0 0.0
2015-May-19 18:28N 22°06' E 114°08'0 0.0
2015-May-19 17:33N 22°06' E 114°08'0 0.0
2015-May-19 16:30N 22°06' E 114°08'0 0.1
2015-May-19 15:27N 22°06' E 114°08'16 7.6
2015-May-19 13:19N 22°04' E 113°51'810.1
2015-May-19 12:33N 22°12' E 113°49'1211.8
2015-May-19 11:33N 22°23' E 113°46'1514.7
2015-May-19 10:32N 22°38' E 113°42'5 0.5
2015-May-19 01:13N 22°33' E 113°44'1014.5
2015-May-19 00:33N 22°24' E 113°46'1514.8
2015-May-18 23:33N 22°09' E 113°47'9 7.9
2015-May-18 22:24N 22°07' E 113°57'1614.6
2015-May-18 21:17N 22°09' E 114°15'1216.3
2015-May-18 20:33N 22°09' E 114°27'13616.3
2015-May-18 12:13N 22°47' E 116°48'7013.7
2015-May-18 07:07N 23°27' E 117°50'913.1
2015-May-18 06:28N 23°33' E 117°57'1312.3
2015-May-18 05:24N 23°42' E 118°08'1214.6
2015-May-18 04:33N 23°50' E 118°19'2015.4
2015-May-18 03:15N 24°03' E 118°35'1515.3
2015-May-18 02:15N 24°12' E 118°49'1316.0
2015-May-18 01:25N 24°20' E 118°60'2015.7
2015-May-18 00:06N 24°34' E 119°17'1115.4
2015-May-17 23:22N 24°40' E 119°27'1915.5
2015-May-17 22:06N 24°52' E 119°45'915.0
2015-May-17 21:30N 24°57' E 119°52'1414.9
2015-May-17 20:32N 25°08' E 120°03'  
Track history (hours):
 
Tides and Currents Weather Stations Pressure Air Temp Water Temp Dewpoint Dewpoint Depression Visibility Wind Speed Wind Dir Waves Ship Positions

Zim Mumbai

Last reported at 2015-May-27 07:21 UTC. Time now 2015-May-30 14:39 UTC.
Position N 01°11' E 103°39'.

Length 195.7 m; beam 32.3 m; draft 11.5 m.

Type: Ship (hazmat cat B). MMSI: 212160000.

Date/timePositionNaut miles runAvg speedWind from/ knotsBaromVisibWave heightAir tempDewpointWater temp
2015-May-27 07:21N 01°11' E 103°39'1313.1
2015-May-27 06:21N 01°13' E 103°52'5 2.2
2015-May-27 04:13N 01°17' E 103°54'3 0.3
2015-May-26 17:28N 01°14' E 103°54'8 8.1
2015-May-26 16:30N 01°16' E 103°46'0 0.0
2015-May-26 12:15N 01°16' E 103°46'0 0.0
2015-May-26 11:25N 01°16' E 103°46'0 0.0
2015-May-26 08:30N 01°16' E 103°46'0 0.0
2015-May-26 05:30N 01°16' E 103°46'0 0.0
2015-May-26 04:27N 01°16' E 103°46'0 0.0
2015-May-26 03:31N 01°16' E 103°46'0 0.0
2015-May-26 02:20N 01°16' E 103°46'0 0.1
2015-May-25 23:33N 01°16' E 103°46'4 1.4
2015-May-25 20:20N 01°13' E 103°49'0 0.1
2015-May-25 19:30N 01°13' E 103°49'3 3.5
2015-May-25 18:32N 01°13' E 103°53'  
2015-May-21 02:23N 21°59' E 114°24'2411.2
2015-May-21 00:15N 22°16' E 114°06'15 8.6
2015-May-20 22:33N 22°24' E 113°53'1 0.0
2015-May-20 01:33N 22°25' E 113°53'6 5.5
2015-May-20 00:22N 22°21' E 113°58'8 9.7
2015-May-19 23:33N 22°17' E 114°06'11 5.7
2015-May-19 21:33N 22°06' E 114°08'0 0.1
2015-May-19 20:29N 22°06' E 114°08'0 0.0
2015-May-19 19:14N 22°06' E 114°08'0 0.0
2015-May-19 18:28N 22°06' E 114°08'0 0.0
2015-May-19 17:33N 22°06' E 114°08'0 0.0
2015-May-19 16:30N 22°06' E 114°08'0 0.1
2015-May-19 15:27N 22°06' E 114°08'16 7.6
2015-May-19 13:19N 22°04' E 113°51'810.1
2015-May-19 12:33N 22°12' E 113°49'1211.8
2015-May-19 11:33N 22°23' E 113°46'1514.7
2015-May-19 10:32N 22°38' E 113°42'5 0.5
2015-May-19 01:13N 22°33' E 113°44'1014.5
2015-May-19 00:33N 22°24' E 113°46'1514.8
2015-May-18 23:33N 22°09' E 113°47'9 7.9
2015-May-18 22:24N 22°07' E 113°57'1614.6
2015-May-18 21:17N 22°09' E 114°15'1216.3
2015-May-18 20:33N 22°09' E 114°27'13616.3
2015-May-18 12:13N 22°47' E 116°48'7013.7
2015-May-18 07:07N 23°27' E 117°50'913.1
2015-May-18 06:28N 23°33' E 117°57'1312.3
2015-May-18 05:24N 23°42' E 118°08'1214.6
2015-May-18 04:33N 23°50' E 118°19'2015.4
2015-May-18 03:15N 24°03' E 118°35'1515.3
2015-May-18 02:15N 24°12' E 118°49'1316.0
2015-May-18 01:25N 24°20' E 118°60'2015.7
2015-May-18 00:06N 24°34' E 119°17'1115.4
2015-May-17 23:22N 24°40' E 119°27'1915.5
2015-May-17 22:06N 24°52' E 119°45'915.0
2015-May-17 21:30N 24°57' E 119°52'1414.9
2015-May-17 20:32N 25°08' E 120°03'  

Dump ship's entire track history